Terminal Aerodrome Forecast
Issued by NWS

Home | Current Version | Previous Version | Text Only | Print | Product List | Glossary On
Versions: 1 2 3 4 5 6 7 8 9 10 11 12 13 14 15 16 17 18 19 20 21 22 23 24 25 26 27 28 29 30 31 32 33 34 35 36
000
FTUS41 KBTV 291720
TAFPBG
TAF
KPBG 291720Z 2918/3018 15010KT P6SM SKC
     FM300000 17006KT P6SM BKN150
     FM301000 18010G16KT P6SM VCSH OVC060
     FM301500 19013G20KT P6SM VCSH OVC035=

USA.gov is the U.S. government's official web portal to all federal, state and local government web resources and services.